Time,TemperatureF,DewpointF,PressureIn,WindDirection,WindDirectionDegrees,WindSpeedMPH,WindSpeedGustMPH,Humidity,HourlyPrecipIn,Conditions,Clouds,dailyrainin,SoftwareType,DateUTC
2013-03-03 00:00:00,50.9,47.4,29.92,WNW,293,2.0,2.5,88,0.00,,,0.00,WUHU216HW,2013-03-03 08:00:00,
2013-03-03 00:05:00,50.9,47.4,29.92,NW,315,1.8,2.5,88,0.00,,,0.00,WUHU216HW,2013-03-03 08:05:00,
2013-03-03 00:10:00,50.9,47.4,29.93,NW,315,0.7,2.5,88,0.00,,,0.00,WUHU216HW,2013-03-03 08:10:00,
2013-03-03 00:15:00,50.9,47.4,29.93,NW,315,0.0,2.2,88,0.00,,,0.00,WUHU216HW,2013-03-03 08:15:00,
2013-03-03 00:20:00,50.9,47.2,29.93,NNE,23,0.4,1.1,87,0.00,,,0.00,WUHU216HW,2013-03-03 08:20:00,
2013-03-03 00:25:00,50.9,47.2,29.92,NNW,338,0.0,0.4,87,0.00,,,0.00,WUHU216HW,2013-03-03 08:25:00,
2013-03-03 00:30:00,51.1,47.4,29.92,ESE,113,1.1,1.1,87,0.00,,,0.00,WUHU216HW,2013-03-03 08:30:00,
2013-03-03 00:35:00,50.9,47.2,29.92,ESE,113,0.4,1.1,87,0.00,,,0.00,WUHU216HW,2013-03-03 08:35:00,
2013-03-03 00:40:00,51.1,47.4,29.92,ESE,113,0.0,1.1,87,0.00,,,0.00,WUHU216HW,2013-03-03 08:40:00,
2013-03-03 00:45:00,51.1,47.4,29.92,SE,135,0.7,0.7,87,0.00,,,0.00,WUHU216HW,2013-03-03 08:45:00,
2013-03-03 00:50:00,51.1,47.0,29.92,SE,135,0.0,1.1,86,0.00,,,0.00,WUHU216HW,2013-03-03 08:50:00,
2013-03-03 00:55:00,51.1,47.0,29.92,SE,135,0.0,1.1,86,0.00,,,0.00,WUHU216HW,2013-03-03 08:55:00,
2013-03-03 01:00:00,51.1,47.0,29.92,SSE,158,0.2,0.9,86,0.00,,,0.00,WUHU216HW,2013-03-03 09:00:00,
2013-03-03 01:05:00,51.1,47.0,29.92,South,180,0.0,0.9,86,0.00,,,0.00,WUHU216HW,2013-03-03 09:05:00,
2013-03-03 01:10:00,51.1,47.0,29.92,West,270,0.4,1.1,86,0.00,,,0.00,WUHU216HW,2013-03-03 09:10:00,
2013-03-03 01:15:00,51.1,47.0,29.92,West,270,0.2,1.1,86,0.00,,,0.00,WUHU216HW,2013-03-03 09:15:00,
2013-03-03 01:20:00,51.1,47.0,29.92,West,270,0.0,0.4,86,0.00,,,0.00,WUHU216HW,2013-03-03 09:20:00,
2013-03-03 01:25:00,51.1,47.0,29.92,West,270,0.0,0.4,86,0.00,,,0.00,WUHU216HW,2013-03-03 09:25:00,
2013-03-03 01:30:00,51.1,47.0,29.92,West,270,0.0,0.0,86,0.00,,,0.00,WUHU216HW,2013-03-03 09:30:00,
2013-03-03 01:35:00,51.1,47.4,29.92,East,90,1.6,2.2,87,0.00,,,0.00,WUHU216HW,2013-03-03 09:35:00,
2013-03-03 01:40:00,50.9,47.2,29.92,East,90,0.4,2.2,87,0.00,,,0.00,WUHU216HW,2013-03-03 09:40:00,
2013-03-03 01:45:00,50.9,47.2,29.92,East,90,0.0,1.6,87,0.00,,,0.00,WUHU216HW,2013-03-03 09:45:00,
2013-03-03 01:50:00,50.9,46.8,29.92,East,90,0.0,0.4,86,0.00,,,0.00,WUHU216HW,2013-03-03 09:50:00,
2013-03-03 01:55:00,50.9,46.8,29.92,East,90,0.0,0.2,86,0.00,,,0.00,WUHU216HW,2013-03-03 09:55:00,
2013-03-03 02:00:00,50.9,46.8,29.92,East,90,0.0,0.4,86,0.00,,,0.00,WUHU216HW,2013-03-03 10:00:00,
2013-03-03 02:05:00,50.9,46.8,29.91,East,90,0.0,0.4,86,0.00,,,0.00,WUHU216HW,2013-03-03 10:05:00,
2013-03-03 02:10:00,51.1,47.0,29.92,East,90,0.0,0.4,86,0.00,,,0.00,WUHU216HW,2013-03-03 10:10:00,
2013-03-03 02:15:00,50.9,46.8,29.92,ESE,113,0.0,1.1,86,0.00,,,0.00,WUHU216HW,2013-03-03 10:15:00,
2013-03-03 02:20:00,50.9,46.8,29.92,ESE,113,0.2,1.1,86,0.00,,,0.00,WUHU216HW,2013-03-03 10:20:00,
2013-03-03 02:25:00,50.9,46.8,29.92,ESE,113,0.0,0.4,86,0.00,,,0.00,WUHU216HW,2013-03-03 10:25:00,
2013-03-03 02:30:00,50.9,46.8,29.92,West,270,3.4,3.8,86,0.00,,,0.00,WUHU216HW,2013-03-03 10:30:00,
2013-03-03 02:35:00,50.9,47.2,29.93,West,270,0.7,4.0,87,0.00,,,0.00,WUHU216HW,2013-03-03 10:35:00,
2013-03-03 02:40:00,50.9,47.2,29.92,WSW,248,1.3,4.0,87,0.00,,,0.00,WUHU216HW,2013-03-03 10:40:00,
2013-03-03 02:45:00,50.8,47.0,29.92,West,270,1.1,2.0,87,0.00,,,0.00,WUHU216HW,2013-03-03 10:45:00,
2013-03-03 02:50:00,50.8,47.0,29.92,WSW,248,3.4,4.5,87,0.00,,,0.00,WUHU216HW,2013-03-03 10:50:00,
2013-03-03 02:55:00,50.8,46.6,29.92,WNW,293,2.5,4.5,86,0.00,,,0.00,WUHU216HW,2013-03-03 10:55:00,
2013-03-03 03:00:00,50.8,47.0,29.92,WSW,248,1.3,4.0,87,0.00,,,0.00,WUHU216HW,2013-03-03 11:00:00,
2013-03-03 03:05:00,50.8,47.0,29.92,WNW,293,0.0,2.7,87,0.00,,,0.00,WUHU216HW,2013-03-03 11:05:00,
2013-03-03 03:10:00,50.8,47.0,29.92,WNW,293,0.0,1.3,87,0.00,,,0.00,WUHU216HW,2013-03-03 11:10:00,
2013-03-03 03:15:00,50.8,47.3,29.92,WNW,293,0.2,1.1,88,0.00,,,0.00,WUHU216HW,2013-03-03 11:15:00,
2013-03-03 03:20:00,50.8,47.0,29.91,WSW,248,0.4,0.7,87,0.00,,,0.00,WUHU216HW,2013-03-03 11:20:00,
2013-03-03 03:25:00,50.8,47.3,29.92,WSW,248,0.0,0.7,88,0.00,,,0.00,WUHU216HW,2013-03-03 11:25:00,
2013-03-03 03:30:00,50.8,47.3,29.93,WNW,293,5.4,5.4,88,0.00,,,0.00,WUHU216HW,2013-03-03 11:30:00,
2013-03-03 03:35:00,50.8,47.6,29.93,WNW,293,3.8,5.8,89,0.00,,,0.00,WUHU216HW,2013-03-03 11:35:00,
2013-03-03 03:40:00,50.8,47.6,29.92,WNW,293,2.9,5.8,89,0.00,,,0.00,WUHU216HW,2013-03-03 11:40:00,
2013-03-03 03:45:00,50.9,47.8,29.92,NW,315,3.4,4.7,89,0.00,,,0.00,WUHU216HW,2013-03-03 11:45:00,
2013-03-03 03:50:00,50.8,47.6,29.92,West,270,3.6,5.6,89,0.00,,,0.00,WUHU216HW,2013-03-03 11:50:00,
2013-03-03 03:55:00,50.9,47.8,29.92,NW,315,4.5,5.6,89,0.00,,,0.00,WUHU216HW,2013-03-03 11:55:00,
2013-03-03 04:00:00,50.9,48.1,29.92,WNW,293,4.5,6.3,90,0.00,,,0.00,WUHU216HW,2013-03-03 12:00:00,
2013-03-03 04:05:00,50.9,48.1,29.92,WNW,293,4.7,6.5,90,0.00,,,0.00,WUHU216HW,2013-03-03 12:05:00,
2013-03-03 04:10:00,50.9,48.1,29.92,WNW,293,5.4,6.5,90,0.00,,,0.00,WUHU216HW,2013-03-03 12:10:00,
2013-03-03 04:15:00,50.8,47.9,29.92,WNW,293,2.5,5.6,90,0.00,,,0.00,WUHU216HW,2013-03-03 12:15:00,
2013-03-03 04:20:00,50.8,47.9,29.92,WNW,293,2.0,5.6,90,0.00,,,0.00,WUHU216HW,2013-03-03 12:20:00,
2013-03-03 04:25:00,50.8,47.9,29.92,WNW,293,2.2,4.3,90,0.00,,,0.00,WUHU216HW,2013-03-03 12:25:00,
2013-03-03 04:30:00,50.8,47.9,29.92,WNW,293,2.2,4.7,90,0.00,,,0.00,WUHU216HW,2013-03-03 12:30:00,
2013-03-03 04:35:00,50.8,47.9,29.92,WSW,248,3.8,4.7,90,0.00,,,0.00,WUHU216HW,2013-03-03 12:35:00,
2013-03-03 04:40:00,50.8,47.9,29.92,NW,315,3.4,4.0,90,0.00,,,0.00,WUHU216HW,2013-03-03 12:40:00,
2013-03-03 04:45:00,50.8,47.9,29.92,West,270,1.8,4.0,90,0.00,,,0.00,WUHU216HW,2013-03-03 12:45:00,
2013-03-03 04:50:00,50.8,47.9,29.92,WNW,293,3.4,4.7,90,0.00,,,0.00,WUHU216HW,2013-03-03 12:50:00,
2013-03-03 04:55:00,50.8,47.9,29.92,WNW,293,2.2,4.7,90,0.00,,,0.00,WUHU216HW,2013-03-03 12:55:00,
2013-03-03 05:00:00,50.8,47.9,29.92,WSW,248,0.9,3.4,90,0.00,,,0.00,WUHU216HW,2013-03-03 13:00:00,
2013-03-03 05:05:00,50.9,48.1,29.92,West,270,0.9,2.2,90,0.00,,,0.00,WUHU216HW,2013-03-03 13:05:00,
2013-03-03 05:10:00,50.9,47.8,29.92,West,270,1.3,2.0,89,0.00,,,0.00,WUHU216HW,2013-03-03 13:10:00,
2013-03-03 05:15:00,50.9,47.8,29.92,WSW,248,1.1,4.7,89,0.00,,,0.00,WUHU216HW,2013-03-03 13:15:00,
2013-03-03 05:20:00,50.9,47.8,29.92,West,270,0.2,4.7,89,0.00,,,0.00,WUHU216HW,2013-03-03 13:20:00,
2013-03-03 05:25:00,50.9,48.1,29.92,WNW,293,4.0,4.0,90,0.00,,,0.00,WUHU216HW,2013-03-03 13:25:00,
2013-03-03 05:30:00,50.8,47.9,29.92,WNW,293,2.5,4.3,90,0.00,,,0.00,WUHU216HW,2013-03-03 13:30:00,
2013-03-03 05:35:00,50.8,47.9,29.92,NW,315,3.4,4.5,90,0.00,,,0.00,WUHU216HW,2013-03-03 13:35:00,
2013-03-03 05:40:00,50.8,47.9,29.92,WNW,293,2.5,4.5,90,0.00,,,0.00,WUHU216HW,2013-03-03 13:40:00,
2013-03-03 05:45:00,50.9,48.1,29.92,WNW,293,2.5,4.0,90,0.00,,,0.00,WUHU216HW,2013-03-03 13:45:00,
2013-03-03 05:50:00,51.1,48.2,29.92,West,270,2.2,3.1,90,0.00,,,0.00,WUHU216HW,2013-03-03 13:50:00,
2013-03-03 05:55:00,51.5,48.6,29.92,WNW,293,0.9,2.2,90,0.00,,,0.00,WUHU216HW,2013-03-03 13:55:00,
2013-03-03 06:00:00,51.5,48.6,29.92,West,270,0.4,1.6,90,0.00,,,0.00,WUHU216HW,2013-03-03 14:00:00,
2013-03-03 06:05:00,51.7,48.8,29.92,SW,225,0.7,0.7,90,0.00,,,0.00,WUHU216HW,2013-03-03 14:05:00,
2013-03-03 06:10:00,51.7,48.5,29.92,SSW,203,0.2,0.7,89,0.00,,,0.00,WUHU216HW,2013-03-03 14:10:00,
2013-03-03 06:15:00,51.8,48.7,29.92,SSW,203,0.0,0.7,89,0.00,,,0.00,WUHU216HW,2013-03-03 14:15:00,
2013-03-03 06:20:00,51.8,48.7,29.92,SSE,158,0.7,1.6,89,0.00,,,0.00,WUHU216HW,2013-03-03 14:20:00,
2013-03-03 06:25:00,51.8,49.0,29.91,SSE,158,0.4,1.6,90,0.00,,,0.00,WUHU216HW,2013-03-03 14:25:00,
2013-03-03 06:30:00,52.0,49.1,29.92,WSW,248,0.7,1.1,90,0.00,,,0.00,WUHU216HW,2013-03-03 14:30:00,
2013-03-03 06:35:00,52.2,49.1,29.92,SW,225,0.0,1.6,89,0.00,,,0.00,WUHU216HW,2013-03-03 14:35:00,
2013-03-03 06:40:00,52.2,49.1,29.91,SE,135,0.0,1.6,89,0.00,,,0.00,WUHU216HW,2013-03-03 14:40:00,
2013-03-03 06:45:00,52.0,48.9,29.91,SSW,203,0.4,1.3,89,0.00,,,0.00,WUHU216HW,2013-03-03 14:45:00,
2013-03-03 06:50:00,52.2,49.1,29.91,SW,225,0.9,1.1,89,0.00,,,0.00,WUHU216HW,2013-03-03 14:50:00,
2013-03-03 06:55:00,52.4,49.2,29.92,SW,225,0.9,1.1,89,0.00,,,0.00,WUHU216HW,2013-03-03 14:55:00,
2013-03-03 07:00:00,52.6,49.4,29.92,WSW,248,0.4,1.3,89,0.00,,,0.00,WUHU216HW,2013-03-03 15:00:00,
2013-03-03 07:05:00,52.6,49.1,29.92,SW,225,0.0,1.8,88,0.00,,,0.00,WUHU216HW,2013-03-03 15:05:00,
2013-03-03 07:10:00,52.7,49.2,29.92,West,270,0.4,1.8,88,0.00,,,0.00,WUHU216HW,2013-03-03 15:10:00,
2013-03-03 07:15:00,52.9,49.4,29.92,West,270,2.2,2.2,88,0.00,,,0.00,WUHU216HW,2013-03-03 15:15:00,
2013-03-03 07:20:00,52.7,49.2,29.92,West,270,1.3,2.2,88,0.00,,,0.00,WUHU216HW,2013-03-03 15:20:00,
2013-03-03 07:25:00,52.7,49.2,29.92,WNW,293,1.6,1.8,88,0.00,,,0.00,WUHU216HW,2013-03-03 15:25:00,
2013-03-03 07:30:00,52.7,49.2,29.92,West,270,2.5,2.5,88,0.00,,,0.00,WUHU216HW,2013-03-03 15:30:00,
2013-03-03 07:35:00,52.7,49.0,29.92,WNW,293,0.7,3.4,87,0.00,,,0.00,WUHU216HW,2013-03-03 15:35:00,
2013-03-03 07:40:00,52.7,49.0,29.93,West,270,1.8,3.4,87,0.00,,,0.00,WUHU216HW,2013-03-03 15:40:00,
2013-03-03 07:45:00,52.9,49.2,29.92,WNW,293,1.3,2.9,87,0.00,,,0.00,WUHU216HW,2013-03-03 15:45:00,
2013-03-03 07:50:00,52.7,49.0,29.93,SSW,203,0.4,2.9,87,0.00,,,0.00,WUHU216HW,2013-03-03 15:50:00,
2013-03-03 07:55:00,52.9,49.2,29.93,WSW,248,0.0,0.7,87,0.00,,,0.00,WUHU216HW,2013-03-03 15:55:00,
2013-03-03 08:00:00,53.1,49.3,29.93,West,270,0.4,1.8,87,0.00,,,0.00,WUHU216HW,2013-03-03 16:00:00,
2013-03-03 08:05:00,53.3,49.5,29.93,West,270,1.6,2.7,87,0.00,,,0.00,WUHU216HW,2013-03-03 16:05:00,
2013-03-03 08:10:00,53.1,49.3,29.93,WNW,293,1.1,2.7,87,0.00,,,0.00,WUHU216HW,2013-03-03 16:10:00,
2013-03-03 08:15:00,53.1,49.3,29.93,West,270,2.0,2.0,87,0.00,,,0.00,WUHU216HW,2013-03-03 16:15:00,
2013-03-03 08:20:00,53.1,49.3,29.93,WNW,293,3.8,4.3,87,0.00,,,0.00,WUHU216HW,2013-03-03 16:20:00,
2013-03-03 08:25:00,52.9,49.2,29.93,WNW,293,0.7,4.3,87,0.00,,,0.00,WUHU216HW,2013-03-03 16:25:00,
2013-03-03 08:30:00,52.9,49.2,29.93,WNW,293,4.0,4.0,87,0.00,,,0.00,WUHU216HW,2013-03-03 16:30:00,
2013-03-03 08:35:00,53.1,49.3,29.93,WSW,248,2.2,4.0,87,0.00,,,0.00,WUHU216HW,2013-03-03 16:35:00,
2013-03-03 08:40:00,53.3,49.5,29.92,WSW,248,1.8,3.6,87,0.00,,,0.00,WUHU216HW,2013-03-03 16:40:00,
2013-03-03 08:45:00,53.5,49.7,29.93,WSW,248,0.4,2.9,87,0.00,,,0.00,WUHU216HW,2013-03-03 16:45:00,
2013-03-03 08:50:00,53.6,49.5,29.93,WNW,293,4.3,4.3,86,0.00,,,0.00,WUHU216HW,2013-03-03 16:50:00,
2013-03-03 08:55:00,53.8,49.7,29.93,West,270,3.6,4.3,86,0.00,,,0.00,WUHU216HW,2013-03-03 16:55:00,
2013-03-03 09:00:00,54.2,50.0,29.93,WNW,293,2.5,4.0,86,0.00,,,0.00,WUHU216HW,2013-03-03 17:00:00,
2013-03-03 09:05:00,54.2,50.0,29.93,WNW,293,4.7,4.7,86,0.00,,,0.00,WUHU216HW,2013-03-03 17:05:00,
2013-03-03 09:10:00,54.0,49.9,29.93,NW,315,4.7,4.9,86,0.00,,,0.00,WUHU216HW,2013-03-03 17:10:00,
2013-03-03 09:15:00,53.8,49.7,29.93,WNW,293,3.4,7.6,86,0.00,,,0.00,WUHU216HW,2013-03-03 17:15:00,
2013-03-03 09:20:00,53.6,49.5,29.93,NW,315,4.7,7.6,86,0.00,,,0.00,WUHU216HW,2013-03-03 17:20:00,
2013-03-03 09:25:00,53.8,49.7,29.93,NW,315,6.3,6.3,86,0.00,,,0.00,WUHU216HW,2013-03-03 17:25:00,
2013-03-03 09:30:00,53.6,49.5,29.94,WNW,293,1.8,6.3,86,0.00,,,0.00,WUHU216HW,2013-03-03 17:30:00,
2013-03-03 09:35:00,53.6,49.5,29.93,West,270,3.6,5.1,86,0.00,,,0.00,WUHU216HW,2013-03-03 17:35:00,
2013-03-03 09:40:00,54.0,49.9,29.94,WSW,248,0.9,4.7,86,0.00,,,0.00,WUHU216HW,2013-03-03 17:40:00,
2013-03-03 09:45:00,54.4,50.2,29.93,WSW,248,2.5,4.7,86,0.00,,,0.00,WUHU216HW,2013-03-03 17:45:00,
2013-03-03 09:50:00,54.7,50.6,29.94,WNW,293,5.4,6.5,86,0.00,,,0.00,WUHU216HW,2013-03-03 17:50:00,
2013-03-03 09:55:00,55.1,50.6,29.94,West,270,4.7,6.5,85,0.00,,,0.00,WUHU216HW,2013-03-03 17:55:00,
2013-03-03 10:00:00,55.4,50.6,29.94,SW,225,3.6,6.3,84,0.00,,,0.00,WUHU216HW,2013-03-03 18:00:00,
2013-03-03 10:05:00,55.8,50.9,29.93,WNW,293,1.8,3.8,84,0.00,,,0.00,WUHU216HW,2013-03-03 18:05:00,
2013-03-03 10:10:00,55.8,50.7,29.93,WNW,293,2.0,3.6,83,0.00,,,0.00,WUHU216HW,2013-03-03 18:10:00,
2013-03-03 10:15:00,56.2,50.7,29.94,WNW,293,4.7,4.7,82,0.00,,,0.00,WUHU216HW,2013-03-03 18:15:00,
2013-03-03 10:20:00,56.2,50.7,29.94,WNW,293,4.7,5.6,82,0.00,,,0.00,WUHU216HW,2013-03-03 18:20:00,
2013-03-03 10:25:00,55.8,50.1,29.94,WNW,293,5.8,5.8,81,0.00,,,0.00,WUHU216HW,2013-03-03 18:25:00,
2013-03-03 10:30:00,55.8,50.3,29.94,West,270,0.0,5.8,82,0.00,,,0.00,WUHU216HW,2013-03-03 18:30:00,
2013-03-03 10:35:00,56.9,51.4,29.93,SW,225,1.1,4.7,82,0.00,,,0.00,WUHU216HW,2013-03-03 18:35:00,
2013-03-03 10:40:00,58.0,52.2,29.93,SSW,203,0.2,2.9,81,0.00,,,0.00,WUHU216HW,2013-03-03 18:40:00,
2013-03-03 10:45:00,59.0,52.9,29.93,West,270,3.4,3.4,80,0.00,,,0.00,WUHU216HW,2013-03-03 18:45:00,
2013-03-03 10:50:00,59.2,52.7,29.93,West,270,2.5,4.5,79,0.00,,,0.00,WUHU216HW,2013-03-03 18:50:00,
2013-03-03 10:55:00,59.0,52.2,29.93,WSW,248,0.7,4.5,78,0.00,,,0.00,WUHU216HW,2013-03-03 18:55:00,
2013-03-03 11:00:00,59.4,52.2,29.93,WNW,293,3.6,4.0,77,0.00,,,0.00,WUHU216HW,2013-03-03 19:00:00,
2013-03-03 11:05:00,59.2,52.0,29.93,WNW,293,0.7,4.0,77,0.00,,,0.00,WUHU216HW,2013-03-03 19:05:00,
2013-03-03 11:10:00,59.4,52.2,29.93,SW,225,1.8,2.5,77,0.00,,,0.00,WUHU216HW,2013-03-03 19:10:00,
2013-03-03 11:15:00,59.8,52.6,29.93,West,270,1.6,2.5,77,0.00,,,0.00,WUHU216HW,2013-03-03 19:15:00,
2013-03-03 11:20:00,60.1,52.6,29.93,SSE,158,2.2,2.2,76,0.00,,,0.00,WUHU216HW,2013-03-03 19:20:00,
2013-03-03 11:25:00,60.3,52.7,29.93,NW,315,2.5,2.5,76,0.00,,,0.00,WUHU216HW,2013-03-03 19:25:00,
2013-03-03 11:30:00,60.1,52.6,29.93,South,180,1.8,2.7,76,0.00,,,0.00,WUHU216HW,2013-03-03 19:30:00,
2013-03-03 11:35:00,60.5,52.6,29.93,WNW,293,2.9,2.9,75,0.00,,,0.00,WUHU216HW,2013-03-03 19:35:00,
2013-03-03 11:40:00,60.8,52.9,29.93,WSW,248,0.4,3.4,75,0.00,,,0.00,WUHU216HW,2013-03-03 19:40:00,
2013-03-03 11:45:00,61.0,52.8,29.92,West,270,0.4,3.4,74,0.00,,,0.00,WUHU216HW,2013-03-03 19:45:00,
2013-03-03 11:50:00,61.0,52.4,29.92,NW,315,0.9,3.6,73,0.00,,,0.00,WUHU216HW,2013-03-03 19:50:00,
2013-03-03 11:55:00,61.2,52.6,29.92,SW,225,2.2,3.6,73,0.00,,,0.00,WUHU216HW,2013-03-03 19:55:00,
2013-03-03 12:00:00,61.6,52.8,29.92,West,270,0.4,2.9,73,0.00,,,0.00,WUHU216HW,2013-03-03 20:00:00,
2013-03-03 12:05:00,61.9,53.2,29.92,SW,225,0.2,3.4,73,0.00,,,0.00,WUHU216HW,2013-03-03 20:05:00,
2013-03-03 12:10:00,62.1,53.0,29.92,WNW,293,4.7,4.7,72,0.00,,,0.00,WUHU216HW,2013-03-03 20:10:00,
2013-03-03 12:15:00,62.3,53.5,29.92,WNW,293,0.9,4.7,73,0.00,,,0.00,WUHU216HW,2013-03-03 20:15:00,
2013-03-03 12:20:00,62.6,53.5,29.91,NW,315,2.0,4.3,72,0.00,,,0.00,WUHU216HW,2013-03-03 20:20:00,
2013-03-03 12:25:00,63.0,53.5,29.91,NW,315,3.4,4.9,71,0.00,,,0.00,WUHU216HW,2013-03-03 20:25:00,
2013-03-03 12:30:00,62.6,52.7,29.91,WNW,293,3.8,4.9,70,0.00,,,0.00,WUHU216HW,2013-03-03 20:30:00,
2013-03-03 12:35:00,62.5,52.9,29.91,SW,225,3.1,3.8,71,0.00,,,0.00,WUHU216HW,2013-03-03 20:35:00,
2013-03-03 12:40:00,62.8,53.6,29.91,SSW,203,4.0,4.0,72,0.00,,,0.00,WUHU216HW,2013-03-03 20:40:00,
2013-03-03 12:45:00,63.4,53.8,29.90,WSW,248,0.7,4.7,71,0.00,,,0.00,WUHU216HW,2013-03-03 20:45:00,
2013-03-03 12:50:00,63.7,54.2,29.90,WNW,293,2.2,4.7,71,0.00,,,0.00,WUHU216HW,2013-03-03 20:50:00,
2013-03-03 12:55:00,63.7,53.4,29.90,West,270,5.1,6.0,69,0.00,,,0.00,WUHU216HW,2013-03-03 20:55:00,
2013-03-03 13:00:00,63.5,53.6,29.90,WSW,248,4.3,6.0,70,0.00,,,0.00,WUHU216HW,2013-03-03 21:00:00,
2013-03-03 13:05:00,63.4,53.5,29.90,WSW,248,2.0,6.3,70,0.00,,,0.00,WUHU216HW,2013-03-03 21:05:00,
2013-03-03 13:10:00,63.2,53.3,29.89,WNW,293,6.3,6.5,70,0.00,,,0.00,WUHU216HW,2013-03-03 21:10:00,
2013-03-03 13:15:00,63.0,53.1,29.89,WNW,293,4.0,6.5,70,0.00,,,0.00,WUHU216HW,2013-03-03 21:15:00,
2013-03-03 13:20:00,62.8,52.5,29.89,WSW,248,3.8,6.0,69,0.00,,,0.00,WUHU216HW,2013-03-03 21:20:00,
2013-03-03 13:25:00,61.9,51.7,29.89,WNW,293,5.8,5.8,69,0.00,,,0.00,WUHU216HW,2013-03-03 21:25:00,
2013-03-03 13:30:00,61.2,51.0,29.89,WNW,293,9.4,9.6,69,0.00,,,0.00,WUHU216HW,2013-03-03 21:30:00,
2013-03-03 13:35:00,60.8,51.1,29.89,West,270,8.1,10.1,70,0.00,,,0.00,WUHU216HW,2013-03-03 21:35:00,
2013-03-03 13:40:00,61.0,51.7,29.89,West,270,8.1,10.1,71,0.00,,,0.00,WUHU216HW,2013-03-03 21:40:00,
2013-03-03 13:45:00,61.2,51.5,29.89,NW,315,8.5,10.5,70,0.00,,,0.00,WUHU216HW,2013-03-03 21:45:00,
2013-03-03 13:50:00,61.0,50.9,29.89,WNW,293,10.1,10.5,69,0.00,,,0.00,WUHU216HW,2013-03-03 21:50:00,
2013-03-03 13:55:00,60.5,51.5,29.89,NNW,338,6.3,11.4,72,0.00,,,0.00,WUHU216HW,2013-03-03 21:55:00,
2013-03-03 14:00:00,60.7,51.3,29.89,WNW,293,8.7,11.4,71,0.00,,,0.00,WUHU216HW,2013-03-03 22:00:00,
2013-03-03 14:05:00,60.8,51.5,29.89,WNW,293,9.8,9.8,71,0.00,,,0.00,WUHU216HW,2013-03-03 22:05:00,
2013-03-03 14:10:00,60.8,51.5,29.89,West,270,10.7,10.7,71,0.00,,,0.00,WUHU216HW,2013-03-03 22:10:00,
2013-03-03 14:15:00,60.3,50.9,29.89,WNW,293,10.1,10.7,71,0.00,,,0.00,WUHU216HW,2013-03-03 22:15:00,
2013-03-03 14:20:00,59.9,50.9,29.89,SW,225,5.8,10.5,72,0.00,,,0.00,WUHU216HW,2013-03-03 22:20:00,
2013-03-03 14:25:00,60.1,51.5,29.89,WNW,293,4.0,11.6,73,0.00,,,0.00,WUHU216HW,2013-03-03 22:25:00,
2013-03-03 14:30:00,60.1,51.5,29.88,NW,315,8.7,11.6,73,0.00,,,0.00,WUHU216HW,2013-03-03 22:30:00,
2013-03-03 14:35:00,59.9,51.3,29.89,West,270,5.1,10.5,73,0.00,,,0.00,WUHU216HW,2013-03-03 22:35:00,
2013-03-03 14:40:00,60.3,51.7,29.89,West,270,3.6,8.5,73,0.00,,,0.00,WUHU216HW,2013-03-03 22:40:00,
2013-03-03 14:45:00,61.2,52.6,29.89,West,270,3.8,7.6,73,0.00,,,0.00,WUHU216HW,2013-03-03 22:45:00,
2013-03-03 14:51:00,61.6,51.8,29.89,West,270,9.2,9.8,70,0.00,,,0.00,WUHU216HW,2013-03-03 22:51:00,
2013-03-03 14:56:00,61.4,51.6,29.89,West,270,6.0,9.8,70,0.00,,,0.00,WUHU216HW,2013-03-03 22:56:00,
2013-03-03 15:01:00,60.7,50.9,29.90,WNW,293,6.3,8.3,70,0.00,,,0.00,WUHU216HW,2013-03-03 23:01:00,
2013-03-03 15:06:00,60.1,51.1,29.90,West,270,7.6,8.3,72,0.00,,,0.00,WUHU216HW,2013-03-03 23:06:00,
2013-03-03 15:11:00,59.8,50.8,29.90,WSW,248,7.2,7.8,72,0.00,,,0.00,WUHU216HW,2013-03-03 23:11:00,
2013-03-03 15:16:00,59.6,50.9,29.89,WNW,293,4.7,9.6,73,0.00,,,0.00,WUHU216HW,2013-03-03 23:16:00,
2013-03-03 15:21:00,58.9,50.2,29.89,WNW,293,6.9,10.5,73,0.00,,,0.00,WUHU216HW,2013-03-03 23:21:00,
2013-03-03 15:26:00,58.3,50.0,29.89,WNW,293,6.9,10.5,74,0.00,,,0.00,WUHU216HW,2013-03-03 23:26:00,
2013-03-03 15:31:00,58.0,50.0,29.89,WNW,293,7.2,9.8,75,0.00,,,0.00,WUHU216HW,2013-03-03 23:31:00,
2013-03-03 15:36:00,58.0,50.4,29.90,WNW,293,6.3,8.9,76,0.00,,,0.00,WUHU216HW,2013-03-03 23:36:00,
2013-03-03 15:41:00,58.5,50.9,29.89,SW,225,1.1,7.2,76,0.00,,,0.00,WUHU216HW,2013-03-03 23:41:00,
2013-03-03 15:46:00,58.9,50.6,29.89,WSW,248,4.7,6.3,74,0.00,,,0.00,WUHU216HW,2013-03-03 23:46:00,
2013-03-03 15:51:00,59.2,50.9,29.89,WNW,293,6.0,6.3,74,0.00,,,0.00,WUHU216HW,2013-03-03 23:51:00,
2013-03-03 15:56:00,59.2,50.9,29.89,West,270,4.7,7.2,74,0.00,,,0.00,WUHU216HW,2013-03-03 23:56:00,
2013-03-03 16:01:00,58.9,50.2,29.89,NW,315,6.3,7.2,73,0.00,,,0.00,WUHU216HW,2013-03-04 00:01:00,
2013-03-03 16:06:00,58.7,50.0,29.89,West,270,3.6,6.9,73,0.00,,,0.00,WUHU216HW,2013-03-04 00:06:00,
2013-03-03 16:11:00,58.3,49.7,29.89,WNW,293,6.3,8.5,73,0.00,,,0.00,WUHU216HW,2013-03-04 00:11:00,
2013-03-03 16:16:00,58.0,49.7,29.89,SW,225,6.0,8.5,74,0.00,,,0.00,WUHU216HW,2013-03-04 00:16:00,
2013-03-03 16:21:00,57.8,49.5,29.89,WNW,293,3.8,6.3,74,0.00,,,0.00,WUHU216HW,2013-03-04 00:21:00,
2013-03-03 16:26:00,57.6,49.7,29.89,WSW,248,8.1,8.1,75,0.00,,,0.00,WUHU216HW,2013-03-04 00:26:00,
2013-03-03 16:31:00,56.9,49.0,29.89,NNW,338,4.7,9.2,75,0.00,,,0.00,WUHU216HW,2013-03-04 00:31:00,
2013-03-03 16:36:00,56.3,48.8,29.89,West,270,6.3,9.2,76,0.00,,,0.00,WUHU216HW,2013-03-04 00:36:00,
2013-03-03 16:41:00,56.0,48.5,29.89,West,270,5.4,8.1,76,0.00,,,0.00,WUHU216HW,2013-03-04 00:41:00,
2013-03-03 16:46:00,55.6,48.5,29.89,West,270,6.3,9.6,77,0.00,,,0.00,WUHU216HW,2013-03-04 00:46:00,
2013-03-03 16:51:00,54.9,48.2,29.89,WNW,293,6.5,9.6,78,0.00,,,0.00,WUHU216HW,2013-03-04 00:51:00,
2013-03-03 16:56:00,54.7,48.3,29.90,West,270,3.6,7.8,79,0.00,,,0.00,WUHU216HW,2013-03-04 00:56:00,
2013-03-03 17:01:00,54.7,48.0,29.90,NW,315,3.4,7.8,78,0.00,,,0.00,WUHU216HW,2013-03-04 01:01:00,
2013-03-03 17:06:00,54.5,47.8,29.90,NW,315,4.9,4.9,78,0.00,,,0.00,WUHU216HW,2013-03-04 01:06:00,
2013-03-03 17:11:00,54.2,47.5,29.90,NW,315,3.8,4.9,78,0.00,,,0.00,WUHU216HW,2013-03-04 01:11:00,
2013-03-03 17:16:00,54.0,47.7,29.89,SW,225,5.4,5.4,79,0.00,,,0.00,WUHU216HW,2013-03-04 01:16:00,
2013-03-03 17:21:00,54.2,47.8,29.89,NW,315,4.9,5.4,79,0.00,,,0.00,WUHU216HW,2013-03-04 01:21:00,
2013-03-03 17:26:00,54.2,48.2,29.89,WSW,248,2.7,6.7,80,0.00,,,0.00,WUHU216HW,2013-03-04 01:26:00,
2013-03-03 17:31:00,54.0,48.1,29.90,West,270,8.9,8.9,80,0.00,,,0.00,WUHU216HW,2013-03-04 01:31:00,
2013-03-03 17:36:00,53.8,47.9,29.90,WNW,293,7.6,8.9,80,0.00,,,0.00,WUHU216HW,2013-03-04 01:36:00,
2013-03-03 17:41:00,53.6,47.7,29.90,WNW,293,5.1,7.6,80,0.00,,,0.00,WUHU216HW,2013-03-04 01:41:00,
2013-03-03 17:46:00,53.6,47.7,29.90,West,270,4.0,6.3,80,0.00,,,0.00,WUHU216HW,2013-03-04 01:46:00,
2013-03-03 17:51:00,53.5,47.5,29.90,WSW,248,1.1,5.4,80,0.00,,,0.00,WUHU216HW,2013-03-04 01:51:00,
2013-03-03 17:56:00,53.5,47.5,29.90,South,180,2.5,4.0,80,0.00,,,0.00,WUHU216HW,2013-03-04 01:56:00,
2013-03-03 18:01:00,53.3,47.3,29.90,WSW,248,2.5,4.0,80,0.00,,,0.00,WUHU216HW,2013-03-04 02:01:00,
2013-03-03 18:06:00,52.9,47.0,29.90,South,180,3.8,4.0,80,0.00,,,0.00,WUHU216HW,2013-03-04 02:06:00,
2013-03-03 18:11:00,52.7,46.8,29.90,West,270,1.6,4.7,80,0.00,,,0.00,WUHU216HW,2013-03-04 02:11:00,
2013-03-03 18:16:00,52.4,46.7,29.90,West,270,5.8,5.8,81,0.00,,,0.00,WUHU216HW,2013-03-04 02:16:00,
2013-03-03 18:21:00,52.2,46.5,29.90,WSW,248,0.7,6.3,81,0.00,,,0.00,WUHU216HW,2013-03-04 02:21:00,
2013-03-03 18:26:00,52.0,46.4,29.90,WSW,248,5.1,6.3,81,0.00,,,0.00,WUHU216HW,2013-03-04 02:26:00,
2013-03-03 18:31:00,51.8,46.5,29.91,SSE,158,0.4,7.6,82,0.00,,,0.00,WUHU216HW,2013-03-04 02:31:00,
2013-03-03 18:36:00,52.0,47.0,29.91,West,270,6.9,7.6,83,0.00,,,0.00,WUHU216HW,2013-03-04 02:36:00,
2013-03-03 18:41:00,52.4,47.7,29.91,WNW,293,2.5,6.9,84,0.00,,,0.00,WUHU216HW,2013-03-04 02:41:00,
2013-03-03 18:46:00,52.6,47.5,29.91,SW,225,3.8,6.3,83,0.00,,,0.00,WUHU216HW,2013-03-04 02:46:00,
2013-03-03 18:51:00,52.7,47.4,29.91,SW,225,2.5,6.3,82,0.00,,,0.00,WUHU216HW,2013-03-04 02:51:00,
2013-03-03 18:56:00,52.9,47.6,29.91,SSW,203,4.7,4.7,82,0.00,,,0.00,WUHU216HW,2013-03-04 02:56:00,
2013-03-03 19:01:00,52.9,47.6,29.91,South,180,3.1,4.7,82,0.00,,,0.00,WUHU216HW,2013-03-04 03:01:00,
2013-03-03 19:07:00,53.1,47.4,29.91,WSW,248,2.2,4.9,81,0.00,,,0.00,WUHU216HW,2013-03-04 03:07:00,
2013-03-03 19:12:00,53.1,47.4,29.91,SW,225,3.4,5.8,81,0.00,,,0.00,WUHU216HW,2013-03-04 03:12:00,
2013-03-03 19:17:00,53.3,47.6,29.90,SW,225,1.8,5.4,81,0.00,,,0.00,WUHU216HW,2013-03-04 03:17:00,
2013-03-03 19:22:00,53.3,47.6,29.90,West,270,2.7,5.4,81,0.00,,,0.00,WUHU216HW,2013-03-04 03:22:00,
2013-03-03 19:27:00,53.1,47.2,29.90,South,180,2.7,4.3,80,0.00,,,0.00,WUHU216HW,2013-03-04 03:27:00,
2013-03-03 19:32:00,52.9,47.0,29.91,SSW,203,4.5,7.4,80,0.00,,,0.00,WUHU216HW,2013-03-04 03:32:00,
2013-03-03 19:37:00,52.9,47.0,29.91,South,180,4.0,7.4,80,0.00,,,0.00,WUHU216HW,2013-03-04 03:37:00,
2013-03-03 19:42:00,52.9,47.0,29.91,SSW,203,4.9,5.4,80,0.00,,,0.00,WUHU216HW,2013-03-04 03:42:00,
2013-03-03 19:47:00,52.9,47.0,29.91,SSE,158,0.9,5.4,80,0.00,,,0.00,WUHU216HW,2013-03-04 03:47:00,
2013-03-03 19:52:00,52.9,47.0,29.91,SSW,203,3.6,5.4,80,0.00,,,0.00,WUHU216HW,2013-03-04 03:52:00,
2013-03-03 19:57:00,52.9,47.0,29.91,SSW,203,1.3,5.4,80,0.00,,,0.00,WUHU216HW,2013-03-04 03:57:00,
2013-03-03 20:02:00,53.1,47.2,29.91,West,270,3.6,5.1,80,0.00,,,0.00,WUHU216HW,2013-03-04 04:02:00,
2013-03-03 20:07:00,53.3,47.3,29.91,South,180,2.9,7.4,80,0.00,,,0.00,WUHU216HW,2013-03-04 04:07:00,
2013-03-03 20:12:00,53.1,47.2,29.91,SSW,203,1.8,7.4,80,0.00,,,0.00,WUHU216HW,2013-03-04 04:12:00,
2013-03-03 20:17:00,52.7,46.8,29.91,South,180,4.9,5.4,80,0.00,,,0.00,WUHU216HW,2013-03-04 04:17:00,
2013-03-03 20:22:00,52.2,46.3,29.91,SSE,158,4.3,5.8,80,0.00,,,0.00,WUHU216HW,2013-03-04 04:22:00,
2013-03-03 20:27:00,51.8,46.2,29.92,SW,225,4.7,6.7,81,0.00,,,0.00,WUHU216HW,2013-03-04 04:27:00,
2013-03-03 20:32:00,51.7,46.0,29.92,South,180,4.3,6.7,81,0.00,,,0.00,WUHU216HW,2013-03-04 04:32:00,
2013-03-03 20:37:00,51.5,45.8,29.92,SSE,158,4.5,8.5,81,0.00,,,0.00,WUHU216HW,2013-03-04 04:37:00,
2013-03-03 20:42:00,51.5,46.2,29.92,South,180,4.5,8.5,82,0.00,,,0.00,WUHU216HW,2013-03-04 04:42:00,
2013-03-03 20:47:00,51.3,46.0,29.92,South,180,2.9,7.2,82,0.00,,,0.00,WUHU216HW,2013-03-04 04:47:00,
2013-03-03 20:52:00,51.3,46.0,29.92,South,180,4.9,7.2,82,0.00,,,0.00,WUHU216HW,2013-03-04 04:52:00,
2013-03-03 20:57:00,51.1,46.1,29.92,SSW,203,3.4,7.6,83,0.00,,,0.00,WUHU216HW,2013-03-04 04:57:00,
2013-03-03 21:00:00,51.1,46.1,29.92,South,180,7.2,7.6,83,0.00,,,0.00,WUHU216HW,2013-03-04 05:00:00,
2013-03-03 21:05:00,51.1,46.1,29.92,SSW,203,2.7,7.2,83,0.00,,,0.00,WUHU216HW,2013-03-04 05:05:00,
2013-03-03 21:10:00,51.1,46.1,29.92,SSW,203,5.4,5.8,83,0.00,,,0.00,WUHU216HW,2013-03-04 05:10:00,
2013-03-03 21:15:00,51.1,46.1,29.92,SSE,158,4.7,6.3,83,0.00,,,0.00,WUHU216HW,2013-03-04 05:15:00,
2013-03-03 21:20:00,51.1,46.1,29.92,South,180,4.7,6.3,83,0.00,,,0.00,WUHU216HW,2013-03-04 05:20:00,
2013-03-03 21:25:00,51.1,46.1,29.92,SSW,203,5.1,5.6,83,0.00,,,0.00,WUHU216HW,2013-03-04 05:25:00,
2013-03-03 21:30:00,51.1,46.5,29.92,SSE,158,1.8,5.1,84,0.00,,,0.00,WUHU216HW,2013-03-04 05:30:00,
2013-03-03 21:35:00,51.1,46.5,29.92,SSW,203,4.9,6.3,84,0.00,,,0.00,WUHU216HW,2013-03-04 05:35:00,
2013-03-03 21:40:00,50.9,46.3,29.92,SSE,158,2.5,6.3,84,0.00,,,0.00,WUHU216HW,2013-03-04 05:40:00,
2013-03-03 21:45:00,50.9,46.3,29.92,SSW,203,1.8,5.4,84,0.00,,,0.00,WUHU216HW,2013-03-04 05:45:00,
2013-03-03 21:50:00,50.9,46.3,29.92,SSE,158,5.6,5.6,84,0.00,,,0.00,WUHU216HW,2013-03-04 05:50:00,
2013-03-03 21:55:00,50.9,46.3,29.92,SSE,158,3.4,5.6,84,0.00,,,0.00,WUHU216HW,2013-03-04 05:55:00,
2013-03-03 22:00:00,51.1,46.5,29.92,ESE,113,2.9,5.6,84,0.00,,,0.00,WUHU216HW,2013-03-04 06:00:00,
2013-03-03 22:05:00,50.9,46.3,29.92,South,180,6.9,6.9,84,0.00,,,0.00,WUHU216HW,2013-03-04 06:05:00,
2013-03-03 22:10:00,50.9,46.3,29.92,South,180,5.8,6.9,84,0.00,,,0.00,WUHU216HW,2013-03-04 06:10:00,
2013-03-03 22:15:00,50.9,46.3,29.92,SSE,158,7.6,7.6,84,0.00,,,0.00,WUHU216HW,2013-03-04 06:15:00,
2013-03-03 22:20:00,50.8,46.1,29.92,SW,225,2.9,8.5,84,0.00,,,0.00,WUHU216HW,2013-03-04 06:20:00,
2013-03-03 22:25:00,50.8,46.4,29.92,SW,225,3.4,8.5,85,0.00,,,0.00,WUHU216HW,2013-03-04 06:25:00,
2013-03-03 22:30:00,50.8,46.4,29.92,SSW,203,5.4,5.4,85,0.00,,,0.00,WUHU216HW,2013-03-04 06:30:00,
2013-03-03 22:35:00,50.8,46.4,29.92,SW,225,3.6,5.4,85,0.00,,,0.00,WUHU216HW,2013-03-04 06:35:00,
2013-03-03 22:40:00,50.8,46.4,29.92,SW,225,1.8,6.0,85,0.00,,,0.00,WUHU216HW,2013-03-04 06:40:00,
2013-03-03 22:45:00,50.8,46.4,29.92,SSW,203,1.8,6.0,85,0.00,,,0.00,WUHU216HW,2013-03-04 06:45:00,
2013-03-03 22:50:00,50.8,46.4,29.92,SSW,203,2.5,4.3,85,0.00,,,0.00,WUHU216HW,2013-03-04 06:50:00,
2013-03-03 22:55:00,50.6,46.2,29.91,SSW,203,5.8,5.8,85,0.00,,,0.00,WUHU216HW,2013-03-04 06:55:00,
2013-03-03 23:00:00,50.6,46.2,29.92,SSW,203,5.1,5.8,85,0.00,,,0.00,WUHU216HW,2013-03-04 07:00:00,
2013-03-03 23:05:00,50.6,46.4,29.92,SW,225,2.7,5.8,86,0.00,,,0.00,WUHU216HW,2013-03-04 07:05:00,
2013-03-03 23:10:00,50.6,46.4,29.92,South,180,3.4,5.8,86,0.00,,,0.00,WUHU216HW,2013-03-04 07:10:00,
2013-03-03 23:15:00,50.6,46.4,29.92,SW,225,2.7,4.3,86,0.00,,,0.00,WUHU216HW,2013-03-04 07:15:00,
2013-03-03 23:20:00,50.4,46.3,29.91,South,180,3.1,4.5,86,0.00,,,0.00,WUHU216HW,2013-03-04 07:20:00,
2013-03-03 23:25:00,50.4,46.3,29.91,SSW,203,0.9,5.6,86,0.00,,,0.00,WUHU216HW,2013-03-04 07:25:00,
2013-03-03 23:30:00,50.2,46.1,29.91,SSE,158,3.4,5.6,86,0.00,,,0.00,WUHU216HW,2013-03-04 07:30:00,
2013-03-03 23:35:00,50.0,46.3,29.91,SSE,158,4.7,5.6,87,0.00,,,0.00,WUHU216HW,2013-03-04 07:35:00,
2013-03-03 23:40:00,50.0,46.3,29.91,SE,135,3.1,5.6,87,0.00,,,0.00,WUHU216HW,2013-03-04 07:40:00,
2013-03-03 23:45:00,49.9,46.1,29.91,South,180,4.5,5.6,87,0.00,,,0.00,WUHU216HW,2013-03-04 07:45:00,
2013-03-03 23:50:00,49.7,45.9,29.91,SW,225,2.2,5.6,87,0.00,,,0.00,WUHU216HW,2013-03-04 07:50:00,
2013-03-03 23:55:00,49.7,45.9,29.91,SE,135,3.4,5.1,87,0.00,,,0.00,WUHU216HW,2013-03-04 07:55:00,